createdAt,value
2023-04-10T00:01:26.301Z,7.80
2023-04-10T00:03:54.192Z,7.70
2023-04-10T00:06:21.664Z,7.70
2023-04-10T00:08:48.905Z,7.70
2023-04-10T00:11:15.905Z,7.70
2023-04-10T00:13:43.245Z,7.70
2023-04-10T00:16:13.463Z,7.60
2023-04-10T00:18:40.960Z,7.70
2023-04-10T00:21:08.202Z,7.70
2023-04-10T00:23:35.472Z,7.70
2023-04-10T00:26:02.500Z,7.70
2023-04-10T00:28:29.926Z,7.70
2023-04-10T00:30:56.900Z,7.60
2023-04-10T00:33:24.259Z,7.60
2023-04-10T00:35:51.276Z,7.60
2023-04-10T00:38:18.713Z,7.50
2023-04-10T00:40:45.832Z,7.50
2023-04-10T00:43:13.322Z,7.50
2023-04-10T00:45:40.809Z,7.50
2023-04-10T00:48:08.277Z,7.50
2023-04-10T00:50:35.519Z,7.50
2023-04-10T00:53:03.483Z,7.50
2023-04-10T00:55:30.751Z,7.50
2023-04-10T00:57:58.610Z,7.40
2023-04-10T01:00:25.888Z,7.40
2023-04-10T01:02:54.798Z,7.40
2023-04-10T01:05:22.735Z,7.30
2023-04-10T01:08:02.712Z,7.30
2023-04-10T01:10:35.123Z,7.30
2023-04-10T01:13:11.392Z,7.20
2023-04-10T01:15:47.960Z,7.30
2023-04-10T01:18:44.141Z,7.30
2023-04-10T01:21:14.269Z,7.10
2023-04-10T01:23:47.693Z,7.10
2023-04-10T01:26:17.383Z,7.00
2023-04-10T01:28:56.796Z,7.00
2023-04-10T01:31:51.348Z,6.80
2023-04-10T01:34:28.739Z,6.70
2023-04-10T01:37:00.989Z,6.60
2023-04-10T01:39:30.362Z,6.60
2023-04-10T01:42:00.004Z,6.60
2023-04-10T01:44:31.563Z,6.50
2023-04-10T01:47:00.691Z,6.50
2023-04-10T01:49:30.480Z,6.50
2023-04-10T01:52:00.270Z,6.50
2023-04-10T01:54:28.757Z,6.40
2023-04-10T01:56:56.819Z,6.40
2023-04-10T01:59:24.677Z,6.40
2023-04-10T02:01:58.936Z,6.30
2023-04-10T02:04:26.840Z,6.20
2023-04-10T02:07:13.857Z,6.10
2023-04-10T02:10:08.405Z,6.10
2023-04-10T02:12:41.732Z,6.10
2023-04-10T02:15:10.066Z,6.10
2023-04-10T02:17:38.940Z,6.00
2023-04-10T02:20:08.913Z,6.00
2023-04-10T02:22:37.058Z,5.90
2023-04-10T02:25:06.100Z,5.90
2023-04-10T02:27:34.987Z,5.90
2023-04-10T02:30:06.453Z,5.80
2023-04-10T02:32:33.792Z,5.80
2023-04-10T02:35:04.467Z,5.80
2023-04-10T02:37:32.919Z,5.70
2023-04-10T02:40:00.585Z,5.70
2023-04-10T02:42:27.604Z,5.60
2023-04-10T02:44:55.244Z,5.60
2023-04-10T02:47:22.414Z,5.70
2023-04-10T02:49:49.757Z,5.70
2023-04-10T02:52:17.390Z,5.80
2023-04-10T02:54:44.745Z,5.90
2023-04-10T02:57:11.793Z,6.00
2023-04-10T02:59:39.100Z,6.10
2023-04-10T03:02:06.327Z,6.10
2023-04-10T03:04:33.818Z,6.10
2023-04-10T03:07:00.859Z,6.10
2023-04-10T03:09:28.242Z,6.20
2023-04-10T03:11:55.304Z,6.20
2023-04-10T03:14:23.248Z,6.10
2023-04-10T03:16:50.570Z,6.20
2023-04-10T03:19:17.781Z,6.10
2023-04-10T03:21:46.454Z,6.20
2023-04-10T03:24:13.743Z,6.20
2023-04-10T03:26:43.596Z,6.10
2023-04-10T03:29:11.002Z,6.10
2023-04-10T03:31:38.101Z,6.10
2023-04-10T03:34:05.817Z,6.10
2023-04-10T03:36:33.031Z,6.10
2023-04-10T03:39:00.302Z,6.10
2023-04-10T03:41:27.362Z,6.00
2023-04-10T03:43:55.019Z,6.00
2023-04-10T03:46:22.913Z,6.00
2023-04-10T03:48:51.195Z,6.00
2023-04-10T03:51:18.539Z,6.00
2023-04-10T03:53:46.139Z,6.00
2023-04-10T03:56:13.208Z,6.00
2023-04-10T03:58:40.653Z,5.90
2023-04-10T04:01:07.758Z,5.90
2023-04-10T04:03:35.257Z,6.10
2023-04-10T04:06:02.484Z,5.90
2023-04-10T04:08:29.837Z,5.90
2023-04-10T04:10:56.908Z,5.90
2023-04-10T04:13:24.457Z,5.80
2023-04-10T04:15:51.384Z,5.80
2023-04-10T04:18:18.787Z,5.90
2023-04-10T04:20:45.810Z,5.80
2023-04-10T04:23:13.366Z,5.80
2023-04-10T04:25:40.543Z,5.90
2023-04-10T04:28:08.050Z,5.80
2023-04-10T04:30:35.339Z,5.80
2023-04-10T04:33:06.312Z,5.80
2023-04-10T04:35:33.627Z,5.80
2023-04-10T04:38:01.020Z,5.90
2023-04-10T04:40:27.990Z,5.90
2023-04-10T04:42:55.567Z,5.90
2023-04-10T04:45:22.607Z,6.00
2023-04-10T04:47:50.372Z,5.90
2023-04-10T04:50:17.450Z,5.90
2023-04-10T04:52:44.741Z,6.00
2023-04-10T04:55:11.840Z,6.00
2023-04-10T04:57:39.460Z,6.10
2023-04-10T05:00:07.773Z,6.10
2023-04-10T05:02:35.757Z,6.20
2023-04-10T05:05:03.118Z,6.20
2023-04-10T05:07:31.296Z,6.30
2023-04-10T05:09:58.253Z,6.40
2023-04-10T05:12:25.835Z,6.50
2023-04-10T05:14:53.507Z,6.60
2023-04-10T05:17:21.428Z,6.60
2023-04-10T05:19:48.457Z,6.70
2023-04-10T05:22:18.025Z,6.80
2023-04-10T05:24:45.604Z,6.90
2023-04-10T05:27:13.113Z,7.10
2023-04-10T05:29:40.845Z,7.20
2023-04-10T05:32:08.149Z,7.30
2023-04-10T05:34:35.158Z,7.40
2023-04-10T05:37:02.476Z,7.40
2023-04-10T05:39:29.908Z,7.50
2023-04-10T05:41:58.410Z,7.60
2023-04-10T05:44:25.638Z,7.70
2023-04-10T05:46:52.947Z,7.90
2023-04-10T05:49:20.052Z,8.20
2023-04-10T05:51:50.303Z,8.90
2023-04-10T05:54:17.472Z,8.90
2023-04-10T05:56:46.571Z,9.70
2023-04-10T05:59:14.147Z,9.70
2023-04-10T06:01:42.211Z,10.10
2023-04-10T06:04:09.471Z,10.50
2023-04-10T06:06:37.217Z,11.30
2023-04-10T06:09:04.178Z,11.30
2023-04-10T06:11:32.108Z,11.70
2023-04-10T06:13:59.104Z,12.00
2023-04-10T06:16:26.832Z,12.30
2023-04-10T06:18:54.655Z,12.70
2023-04-10T06:21:22.436Z,13.00
2023-04-10T06:23:49.541Z,13.30
2023-04-10T06:26:17.227Z,13.90
2023-04-10T06:28:45.068Z,14.50
2023-04-10T06:31:12.943Z,15.20
2023-04-10T06:33:39.934Z,15.70
2023-04-10T06:36:08.068Z,16.30
2023-04-10T06:38:37.859Z,16.90
2023-04-10T06:41:06.354Z,17.10
2023-04-10T06:43:35.590Z,17.50
2023-04-10T06:46:06.673Z,18.00
2023-04-10T06:48:34.263Z,18.80
2023-04-10T06:51:01.728Z,19.40
2023-04-10T06:53:29.110Z,20.00
2023-04-10T06:55:57.423Z,20.70
2023-04-10T06:58:24.628Z,21.20
2023-04-10T07:00:52.321Z,21.60
2023-04-10T07:03:19.373Z,21.70
2023-04-10T07:05:46.977Z,22.20
2023-04-10T07:08:14.289Z,22.50
2023-04-10T07:10:41.678Z,22.50
2023-04-10T07:13:08.689Z,22.00
2023-04-10T07:15:36.298Z,21.70
2023-04-10T07:18:03.678Z,21.70
2023-04-10T07:20:31.315Z,22.20
2023-04-10T07:22:58.394Z,22.60
2023-04-10T07:25:25.936Z,22.60
2023-04-10T07:27:53.004Z,23.30
2023-04-10T07:30:20.947Z,23.70
2023-04-10T07:32:48.266Z,23.80
2023-04-10T07:35:15.874Z,23.50
2023-04-10T07:37:44.236Z,23.70
2023-04-10T07:40:12.130Z,23.70
2023-04-10T07:42:39.352Z,24.00
2023-04-10T07:45:07.710Z,24.40
2023-04-10T07:47:34.706Z,25.00
2023-04-10T07:50:02.110Z,24.30
2023-04-10T07:52:29.212Z,24.10
2023-04-10T07:54:56.764Z,24.20
2023-04-10T07:57:24.650Z,25.10
2023-04-10T07:59:51.957Z,25.50
2023-04-10T08:02:19.142Z,26.50
2023-04-10T08:04:47.214Z,27.50
2023-04-10T08:07:14.326Z,28.30
2023-04-10T08:09:41.716Z,29.00
2023-04-10T08:12:08.697Z,29.50
2023-04-10T08:14:36.237Z,29.80
2023-04-10T08:17:03.295Z,30.40
2023-04-10T08:19:31.086Z,30.90
2023-04-10T08:22:00.143Z,31.40
2023-04-10T08:24:29.632Z,31.40
2023-04-10T08:26:56.620Z,31.10
2023-04-10T08:29:25.397Z,31.40
2023-04-10T08:31:52.508Z,31.90
2023-04-10T08:34:20.272Z,31.90
2023-04-10T08:36:47.383Z,30.30
2023-04-10T08:39:14.736Z,30.30
2023-04-10T08:41:41.790Z,30.50
2023-04-10T08:44:09.407Z,30.50
2023-04-10T08:46:38.961Z,30.90
2023-04-10T08:49:08.431Z,30.90
2023-04-10T08:51:55.088Z,31.30
2023-04-10T08:54:28.365Z,31.80
2023-04-10T08:56:58.562Z,32.20
2023-04-10T08:59:27.927Z,32.20
2023-04-10T09:01:55.681Z,29.70
2023-04-10T09:04:24.650Z,29.40
2023-04-10T09:06:53.214Z,30.30
2023-04-10T09:09:20.916Z,30.30
2023-04-10T09:11:56.940Z,31.00
2023-04-10T09:14:26.648Z,31.00
2023-04-10T09:16:54.938Z,30.50
2023-04-10T09:19:33.434Z,30.60
2023-04-10T09:22:00.733Z,31.80
2023-04-10T09:24:28.465Z,33.00
2023-04-10T09:26:55.744Z,35.30
2023-04-10T09:29:23.163Z,34.00
2023-04-10T09:31:51.338Z,30.20
2023-04-10T09:34:22.345Z,29.70
2023-04-10T09:36:57.905Z,27.00
2023-04-10T09:39:43.353Z,27.30
2023-04-10T09:42:12.461Z,30.40
2023-04-10T09:44:41.720Z,32.00
2023-04-10T09:47:14.804Z,30.70
2023-04-10T09:49:53.084Z,28.00
2023-04-10T09:52:26.269Z,26.40
2023-04-10T09:54:55.893Z,28.50
2023-04-10T09:57:24.862Z,29.30
2023-04-10T09:59:58.436Z,26.80
2023-04-10T10:02:27.831Z,24.40
2023-04-10T10:05:01.465Z,22.30
2023-04-10T10:07:31.224Z,20.90
2023-04-10T10:09:59.312Z,20.00
2023-04-10T10:12:35.338Z,19.20
2023-04-10T10:15:13.003Z,18.40
2023-04-10T10:17:47.053Z,17.90
2023-04-10T10:20:18.297Z,17.60
2023-04-10T10:22:46.711Z,17.40
2023-04-10T10:25:14.659Z,17.20
2023-04-10T10:27:42.308Z,17.10
2023-04-10T10:30:28.175Z,17.30
2023-04-10T10:32:58.330Z,17.50
2023-04-10T10:35:29.236Z,17.50
2023-04-10T10:37:58.413Z,17.80
2023-04-10T10:40:46.670Z,17.80
2023-04-10T10:43:42.312Z,18.00
2023-04-10T10:46:20.808Z,17.90
2023-04-10T10:49:11.780Z,17.50
2023-04-10T10:51:52.200Z,17.30
2023-04-10T10:54:28.141Z,17.30
2023-04-10T10:56:55.993Z,17.10
2023-04-10T10:59:47.750Z,17.20
2023-04-10T11:02:18.003Z,17.20
2023-04-10T11:04:46.829Z,17.10
2023-04-10T11:07:15.656Z,16.80
2023-04-10T11:09:50.586Z,16.80
2023-04-10T11:12:22.325Z,16.80
2023-04-10T11:15:04.955Z,17.00
2023-04-10T11:17:51.806Z,17.10
2023-04-10T11:20:21.996Z,16.90
2023-04-10T11:23:12.198Z,17.00
2023-04-10T11:25:52.284Z,16.90
2023-04-10T11:28:36.702Z,17.10
2023-04-10T11:31:22.192Z,17.60
2023-04-10T11:34:00.543Z,18.20
2023-04-10T11:36:28.414Z,18.50
2023-04-10T11:38:58.872Z,18.60
2023-04-10T11:41:34.337Z,18.50
2023-04-10T11:44:04.686Z,18.10
2023-04-10T11:46:36.232Z,17.60
2023-04-10T11:49:05.698Z,17.50
2023-04-10T11:51:33.489Z,17.50
2023-04-10T11:54:14.450Z,17.50
2023-04-10T11:56:43.612Z,17.10
2023-04-10T11:59:13.579Z,16.90
2023-04-10T12:01:43.359Z,16.60
2023-04-10T12:04:16.795Z,16.50
2023-04-10T12:06:46.223Z,16.50
2023-04-10T12:09:17.231Z,16.40
2023-04-10T12:12:04.580Z,16.30
2023-04-10T12:14:40.066Z,16.30
2023-04-10T12:17:09.399Z,16.30
2023-04-10T12:19:38.256Z,16.40
2023-04-10T12:22:05.649Z,16.40
2023-04-10T12:24:45.346Z,16.40
2023-04-10T12:27:23.418Z,16.50
2023-04-10T12:29:52.487Z,16.60
2023-04-10T12:32:20.337Z,16.80
2023-04-10T12:34:51.863Z,16.90
2023-04-10T12:37:21.079Z,17.00
2023-04-10T12:39:50.129Z,17.20
2023-04-10T12:42:23.252Z,17.40
2023-04-10T12:45:01.014Z,17.50
2023-04-10T12:47:29.419Z,17.70
2023-04-10T12:50:07.011Z,17.90
2023-04-10T12:52:34.881Z,18.20
2023-04-10T12:55:16.819Z,18.50
2023-04-10T12:57:54.921Z,18.80
2023-04-10T13:00:22.766Z,19.10
2023-04-10T13:02:50.016Z,19.30
2023-04-10T13:05:17.847Z,19.40
2023-04-10T13:07:46.042Z,19.60
2023-04-10T13:10:14.461Z,19.80
2023-04-10T13:12:43.943Z,19.60
2023-04-10T13:15:11.794Z,19.60
2023-04-10T13:17:38.977Z,19.60
2023-04-10T13:20:07.093Z,19.50
2023-04-10T13:22:34.351Z,19.40
2023-04-10T13:25:03.832Z,19.30
2023-04-10T13:27:30.941Z,19.20
2023-04-10T13:29:58.715Z,19.10
2023-04-10T13:32:25.993Z,18.90
2023-04-10T13:34:54.814Z,18.90
2023-04-10T13:37:22.356Z,18.80
2023-04-10T13:39:49.865Z,18.80
2023-04-10T13:42:16.897Z,18.70
2023-04-10T13:44:46.368Z,18.60
2023-04-10T13:47:22.485Z,18.50
2023-04-10T13:49:49.752Z,18.30
2023-04-10T13:52:16.744Z,18.20
2023-04-10T13:54:44.338Z,18.20
2023-04-10T13:57:11.414Z,17.90
2023-04-10T13:59:39.053Z,17.60
2023-04-10T14:02:06.183Z,17.30
2023-04-10T14:04:33.783Z,17.20
2023-04-10T14:07:02.345Z,17.20
2023-04-10T14:09:29.781Z,17.40
2023-04-10T14:11:57.965Z,17.60
2023-04-10T14:14:26.072Z,17.70
2023-04-10T14:16:53.128Z,18.10
2023-04-10T14:19:21.309Z,18.10
2023-04-10T14:21:48.486Z,18.30
2023-04-10T14:24:16.119Z,18.40
2023-04-10T14:26:43.111Z,18.50
2023-04-10T14:29:10.867Z,18.50
2023-04-10T14:31:50.462Z,18.30
2023-04-10T14:34:24.448Z,18.30
2023-04-10T14:36:55.916Z,18.40
2023-04-10T14:39:24.655Z,18.50
2023-04-10T14:41:52.275Z,17.70
2023-04-10T14:44:20.292Z,17.50
2023-04-10T14:46:47.628Z,16.90
2023-04-10T14:49:15.314Z,16.80
2023-04-10T14:51:46.465Z,16.70
2023-04-10T14:54:14.246Z,16.70
2023-04-10T14:56:41.305Z,16.10
2023-04-10T14:59:08.921Z,16.00
2023-04-10T15:01:36.911Z,15.70
2023-04-10T15:04:05.540Z,15.50
2023-04-10T15:06:35.663Z,15.30
2023-04-10T15:09:03.545Z,15.10
2023-04-10T15:11:31.025Z,15.00
2023-04-10T15:14:00.443Z,14.90
2023-04-10T15:16:27.971Z,14.60
2023-04-10T15:18:57.210Z,14.40
2023-04-10T15:21:24.816Z,14.40
2023-04-10T15:23:52.924Z,14.30
2023-04-10T15:26:21.310Z,14.20
2023-04-10T15:28:48.877Z,14.20
2023-04-10T15:31:16.818Z,14.10
2023-04-10T15:33:44.538Z,14.10
2023-04-10T15:36:11.649Z,13.90
2023-04-10T15:38:39.182Z,13.80
2023-04-10T15:41:10.610Z,13.70
2023-04-10T15:43:38.472Z,13.60
2023-04-10T15:46:05.859Z,13.50
2023-04-10T15:48:34.084Z,13.30
2023-04-10T15:51:05.561Z,13.20
2023-04-10T15:53:34.796Z,13.10
2023-04-10T15:56:05.654Z,13.00
2023-04-10T15:58:34.238Z,12.90
2023-04-10T16:01:01.825Z,12.80
2023-04-10T16:03:30.655Z,12.80
2023-04-10T16:05:58.546Z,12.90
2023-04-10T16:08:26.577Z,12.90
2023-04-10T16:10:54.027Z,13.00
2023-04-10T16:13:22.963Z,13.00
2023-04-10T16:15:50.303Z,13.10
2023-04-10T16:18:18.020Z,13.10
2023-04-10T16:20:45.936Z,13.10
2023-04-10T16:23:13.634Z,13.10
2023-04-10T16:25:41.347Z,13.10
2023-04-10T16:28:09.227Z,13.10
2023-04-10T16:30:36.976Z,13.10
2023-04-10T16:33:04.945Z,13.10
2023-04-10T16:35:32.509Z,13.00
2023-04-10T16:38:01.420Z,12.90
2023-04-10T16:40:32.605Z,12.80
2023-04-10T16:45:29.293Z,12.60
2023-04-10T16:47:57.307Z,12.50
2023-04-10T16:50:24.487Z,12.50
2023-04-10T16:52:51.883Z,12.50
2023-04-10T16:55:19.542Z,12.50
2023-04-10T16:57:47.563Z,12.40
2023-04-10T17:00:15.095Z,12.40
2023-04-10T17:02:43.167Z,12.30
2023-04-10T17:05:11.471Z,12.30
2023-04-10T17:07:40.404Z,12.20
2023-04-10T17:10:08.493Z,12.10
2023-04-10T17:12:36.798Z,12.10
2023-04-10T17:15:04.566Z,12.00
2023-04-10T17:17:34.332Z,11.90
2023-04-10T17:20:01.799Z,11.80
2023-04-10T17:22:29.107Z,11.80
2023-04-10T17:24:56.533Z,11.70
2023-04-10T17:27:24.336Z,11.60
2023-04-10T17:29:51.717Z,11.50
2023-04-10T17:32:19.147Z,11.40
2023-04-10T17:34:47.039Z,11.20
2023-04-10T17:37:14.784Z,11.10
2023-04-10T17:39:42.458Z,11.00
2023-04-10T17:42:10.036Z,10.90
2023-04-10T17:44:37.502Z,10.80
2023-04-10T17:47:05.458Z,10.80
2023-04-10T17:49:32.470Z,10.70
2023-04-10T17:51:59.955Z,10.50
2023-04-10T17:54:27.266Z,10.50
2023-04-10T17:56:54.890Z,10.50
2023-04-10T17:59:22.035Z,10.50
2023-04-10T18:01:49.709Z,10.50
2023-04-10T18:04:17.095Z,10.50
2023-04-10T18:06:45.081Z,10.40
2023-04-10T18:09:12.257Z,10.30
2023-04-10T18:11:40.763Z,10.30
2023-04-10T18:14:08.421Z,10.30
2023-04-10T18:16:36.546Z,10.30
2023-04-10T18:19:03.839Z,10.20
2023-04-10T18:21:34.564Z,10.10
2023-04-10T18:24:01.763Z,10.00
2023-04-10T18:26:31.781Z,9.80
2023-04-10T18:29:00.257Z,9.70
2023-04-10T18:31:28.395Z,9.70
2023-04-10T18:34:06.447Z,9.60
2023-04-10T18:36:35.817Z,9.60
2023-04-10T18:39:03.333Z,9.50
2023-04-10T18:41:30.913Z,9.50
2023-04-10T18:44:05.029Z,9.50
2023-04-10T18:46:34.226Z,9.50
2023-04-10T18:49:04.114Z,9.40
2023-04-10T18:51:34.983Z,9.40
2023-04-10T18:54:04.114Z,9.30
2023-04-10T18:56:32.421Z,9.30
2023-04-10T18:59:01.881Z,9.20
2023-04-10T19:01:29.866Z,9.20
2023-04-10T19:03:57.378Z,9.20
2023-04-10T19:06:26.875Z,9.20
2023-04-10T19:08:55.903Z,9.20
2023-04-10T19:11:23.600Z,9.10
2023-04-10T19:13:50.918Z,9.10
2023-04-10T19:16:19.479Z,9.00
2023-04-10T19:18:49.844Z,9.00
2023-04-10T19:21:18.269Z,8.90
2023-04-10T19:23:45.637Z,8.80
2023-04-10T19:26:13.203Z,8.80
2023-04-10T19:28:40.287Z,8.80
2023-04-10T19:31:09.016Z,8.70
2023-04-10T19:33:36.107Z,8.70
2023-04-10T19:36:04.119Z,8.70
2023-04-10T19:38:32.943Z,8.70
2023-04-10T19:41:00.170Z,8.70
2023-04-10T19:43:27.458Z,8.70
2023-04-10T19:45:56.273Z,8.70
2023-04-10T19:48:26.035Z,8.60
2023-04-10T19:50:53.653Z,8.60
2023-04-10T19:53:20.740Z,8.50
2023-04-10T19:55:48.411Z,8.50
2023-04-10T19:58:35.663Z,8.40
2023-04-10T20:01:04.518Z,8.30
2023-04-10T20:03:32.863Z,8.30
2023-04-10T20:06:02.974Z,8.30
2023-04-10T20:08:30.580Z,8.20
2023-04-10T20:10:58.509Z,8.10
2023-04-10T20:13:25.880Z,8.10
2023-04-10T20:15:53.495Z,8.10
2023-04-10T20:18:21.147Z,8.20
2023-04-10T20:20:48.440Z,8.10
2023-04-10T20:23:15.681Z,8.10
2023-04-10T20:25:43.032Z,8.00
2023-04-10T20:28:10.031Z,8.00
2023-04-10T20:30:40.039Z,8.00
2023-04-10T20:33:07.038Z,8.10
2023-04-10T20:35:34.681Z,8.00
2023-04-10T20:38:01.916Z,8.00
2023-04-10T20:40:29.332Z,8.00
2023-04-10T20:42:56.378Z,8.00
2023-04-10T20:45:23.977Z,8.00
2023-04-10T20:47:51.167Z,8.00
2023-04-10T20:50:18.796Z,8.00
2023-04-10T20:52:45.879Z,8.00
2023-04-10T20:55:13.220Z,8.00
2023-04-10T20:57:40.336Z,8.00
2023-04-10T21:00:08.275Z,8.10
2023-04-10T21:02:35.525Z,8.10
2023-04-10T21:05:03.349Z,8.10
2023-04-10T21:07:30.467Z,8.10
2023-04-10T21:09:58.004Z,8.00
2023-04-10T21:12:25.102Z,7.90
2023-04-10T21:14:52.348Z,7.90
2023-04-10T21:17:19.730Z,7.80
2023-04-10T21:19:47.195Z,7.70
2023-04-10T21:22:14.245Z,7.50
2023-04-10T21:24:41.815Z,7.50
2023-04-10T21:27:08.782Z,7.50
2023-04-10T21:29:36.177Z,7.40
2023-04-10T21:32:03.260Z,7.30
2023-04-10T21:34:30.859Z,7.30
2023-04-10T21:36:57.956Z,7.30
2023-04-10T21:39:25.374Z,7.30
2023-04-10T21:41:52.382Z,7.20
2023-04-10T21:44:19.871Z,7.20
2023-04-10T21:46:47.218Z,7.10
2023-04-10T21:49:14.527Z,7.00
2023-04-10T21:51:41.608Z,7.00
2023-04-10T21:54:08.977Z,6.90
2023-04-10T21:56:36.838Z,6.90
2023-04-10T21:59:04.267Z,6.80
2023-04-10T22:01:31.366Z,6.80
2023-04-10T22:03:59.049Z,6.80
2023-04-10T22:06:26.726Z,6.80
2023-04-10T22:08:54.450Z,6.80
2023-04-10T22:11:21.661Z,6.70
2023-04-10T22:13:48.860Z,6.70
2023-04-10T22:16:16.527Z,6.70
2023-04-10T22:18:43.710Z,6.70
2023-04-10T22:21:10.784Z,6.70
2023-04-10T22:23:38.076Z,6.60
2023-04-10T22:26:05.346Z,6.70
2023-04-10T22:28:32.916Z,6.60
2023-04-10T22:30:59.829Z,6.60
2023-04-10T22:33:27.188Z,6.60
2023-04-10T22:35:54.281Z,6.60
2023-04-10T22:38:21.614Z,6.60
2023-04-10T22:40:48.554Z,6.60
2023-04-10T22:43:18.641Z,6.50
2023-04-10T22:45:45.675Z,6.60
2023-04-10T22:48:12.887Z,6.50
2023-04-10T22:50:39.925Z,6.50
2023-04-10T22:53:07.160Z,6.40
2023-04-10T22:55:34.152Z,6.40
2023-04-10T22:58:01.365Z,6.40
2023-04-10T23:00:28.543Z,6.50
2023-04-10T23:02:56.005Z,6.40
2023-04-10T23:05:23.245Z,6.40
2023-04-10T23:07:50.731Z,6.30
2023-04-10T23:10:17.759Z,6.30
2023-04-10T23:12:45.323Z,6.20
2023-04-10T23:15:12.525Z,6.20
2023-04-10T23:17:39.831Z,6.20
2023-04-10T23:20:07.416Z,6.30
2023-04-10T23:22:34.727Z,6.20
2023-04-10T23:25:01.774Z,6.10
2023-04-10T23:27:29.047Z,6.00
2023-04-10T23:29:55.999Z,6.00
2023-04-10T23:32:23.502Z,6.10
2023-04-10T23:34:50.506Z,5.90
2023-04-10T23:37:18.025Z,5.90
2023-04-10T23:39:44.965Z,5.90
2023-04-10T23:42:12.305Z,6.00
2023-04-10T23:44:40.080Z,5.90
2023-04-10T23:47:07.669Z,5.90
2023-04-10T23:49:37.262Z,5.80
2023-04-10T23:52:04.829Z,5.80
2023-04-10T23:54:31.772Z,5.80
2023-04-10T23:56:59.441Z,5.80
2023-04-10T23:59:26.400Z,5.90
